createdAt,value
2019-06-20T00:00:48.829Z,306.24
2019-06-20T00:01:48.845Z,306.64
2019-06-20T00:02:48.804Z,306.98
2019-06-20T00:03:49.223Z,308.25
2019-06-20T00:04:48.841Z,307.29
2019-06-20T00:05:48.791Z,308.93
2019-06-20T00:06:48.907Z,308.92
2019-06-20T00:07:48.818Z,307.98
2019-06-20T00:08:49.181Z,307.80
2019-06-20T00:09:52.357Z,308.80
2019-06-20T00:10:48.765Z,308.47
2019-06-20T00:11:48.746Z,308.51
2019-06-20T00:13:00.020Z,309.70
2019-06-20T00:13:49.673Z,309.08
2019-06-20T00:14:48.740Z,309.15
2019-06-20T00:15:48.707Z,308.98
2019-06-20T00:16:48.692Z,309.88
2019-06-20T00:17:48.754Z,309.75
2019-06-20T00:18:48.689Z,310.58
2019-06-20T00:19:48.584Z,309.78
2019-06-20T00:20:48.593Z,309.18
2019-06-20T00:21:48.683Z,309.12
2019-06-20T00:22:48.570Z,309.07
2019-06-20T00:23:48.568Z,311.43
2019-06-20T00:24:48.619Z,308.88
2019-06-20T00:25:48.564Z,312.26
2019-06-20T00:26:48.552Z,309.77
2019-06-20T00:27:48.536Z,308.87
2019-06-20T00:28:48.568Z,310.31
2019-06-20T00:29:48.494Z,309.37
2019-06-20T00:30:48.505Z,309.95
2019-06-20T00:31:48.478Z,311.92
2019-06-20T00:32:48.476Z,305.84
2019-06-20T00:33:48.462Z,307.10
2019-06-20T00:34:48.452Z,308.10
2019-06-20T00:35:48.472Z,308.40
2019-06-20T00:36:51.271Z,305.33
2019-06-20T00:37:48.435Z,308.48
2019-06-20T00:38:48.420Z,303.81
2019-06-20T00:39:48.406Z,306.91
2019-06-20T00:40:48.416Z,305.80
2019-06-20T00:41:48.351Z,302.42
2019-06-20T00:42:48.422Z,310.37
2019-06-20T00:43:48.389Z,309.47
2019-06-20T00:44:48.375Z,308.40
2019-06-20T00:45:48.336Z,308.60
2019-06-20T00:46:48.326Z,311.00
2019-06-20T00:47:48.446Z,307.93
2019-06-20T00:48:48.360Z,308.65
2019-06-20T00:49:48.285Z,308.15
2019-06-20T00:50:48.299Z,309.12
2019-06-20T00:51:48.307Z,309.20
2019-06-20T00:52:49.077Z,310.35
2019-06-20T00:53:48.253Z,309.43
2019-06-20T00:54:48.255Z,310.88
2019-06-20T00:55:48.223Z,309.01
2019-06-20T00:56:48.256Z,310.40
2019-06-20T00:57:48.228Z,308.77
2019-06-20T00:58:48.198Z,309.93
2019-06-20T00:59:48.174Z,310.95
2019-06-20T01:00:48.221Z,310.01
2019-06-20T01:01:48.186Z,310.13
2019-06-20T01:02:48.173Z,310.01
2019-06-20T01:03:57.478Z,309.65
2019-06-20T01:04:57.316Z,310.12
2019-06-20T01:05:57.244Z,311.29
2019-06-20T01:06:56.752Z,313.97
2019-06-20T01:07:57.385Z,308.47
2019-06-20T01:08:58.594Z,309.72
2019-06-20T01:09:57.319Z,311.31
2019-06-20T01:10:57.371Z,309.66
2019-06-20T01:11:57.897Z,311.85
2019-06-20T01:12:55.989Z,310.51
2019-06-20T01:13:57.504Z,308.83
2019-06-20T01:14:57.584Z,312.40
2019-06-20T01:15:57.490Z,310.96
2019-06-20T01:16:48.033Z,311.29
2019-06-20T01:17:48.051Z,311.23
2019-06-20T01:18:47.976Z,310.18
2019-06-20T01:19:47.966Z,311.47
2019-06-20T01:20:47.997Z,309.75
2019-06-20T01:21:57.210Z,309.12
2019-06-20T01:22:47.986Z,309.45
2019-06-20T01:23:47.986Z,313.43
2019-06-20T01:24:47.981Z,310.98
2019-06-20T01:25:47.921Z,308.90
2019-06-20T01:26:47.892Z,314.27
2019-06-20T01:27:47.874Z,310.98
2019-06-20T01:28:47.922Z,310.55
2019-06-20T01:29:47.923Z,308.96
2019-06-20T01:30:47.841Z,308.23
2019-06-20T01:31:47.836Z,313.03
2019-06-20T01:32:47.817Z,310.80
2019-06-20T01:33:47.839Z,312.73
2019-06-20T01:34:47.824Z,310.08
2019-06-20T01:35:47.795Z,311.56
2019-06-20T01:36:47.775Z,309.73
2019-06-20T01:37:47.779Z,312.18
2019-06-20T01:38:47.795Z,310.21
2019-06-20T01:39:47.749Z,309.99
2019-06-20T01:40:47.751Z,311.31
2019-06-20T01:41:47.734Z,310.08
2019-06-20T01:42:47.742Z,311.70
2019-06-20T01:43:50.900Z,314.12
2019-06-20T01:44:47.707Z,311.69
2019-06-20T01:45:47.667Z,311.14
2019-06-20T01:46:47.656Z,312.91
2019-06-20T01:47:47.660Z,311.79
2019-06-20T01:48:47.695Z,311.42
2019-06-20T01:49:47.726Z,317.48
2019-06-20T01:50:47.612Z,311.18
2019-06-20T01:51:47.618Z,314.95
2019-06-20T01:52:47.612Z,311.13
2019-06-20T01:53:47.614Z,311.57
2019-06-20T01:54:47.615Z,317.77
2019-06-20T01:55:47.612Z,315.20
2019-06-20T01:56:47.581Z,312.37
2019-06-20T01:57:47.641Z,311.49
2019-06-20T01:58:47.548Z,311.61
2019-06-20T01:59:47.562Z,312.20
2019-06-20T02:00:47.545Z,310.84
2019-06-20T02:01:47.494Z,312.40
2019-06-20T02:02:47.502Z,315.08
2019-06-20T02:03:47.495Z,314.54
2019-06-20T02:04:47.501Z,310.46
2019-06-20T02:05:47.498Z,312.02
2019-06-20T02:06:47.454Z,309.88
2019-06-20T02:07:47.453Z,311.07
2019-06-20T02:08:47.435Z,312.14
2019-06-20T02:09:47.432Z,310.46
2019-06-20T02:10:47.444Z,310.85
2019-06-20T02:11:47.446Z,315.35
2019-06-20T02:12:47.387Z,311.00
2019-06-20T02:13:47.404Z,310.56
2019-06-20T02:14:47.389Z,311.30
2019-06-20T02:15:47.419Z,314.85
2019-06-20T02:16:47.410Z,314.45
2019-06-20T02:17:47.350Z,311.23
2019-06-20T02:18:47.342Z,314.70
2019-06-20T02:19:47.330Z,312.33
2019-06-20T02:20:47.321Z,311.75
2019-06-20T02:21:47.300Z,310.86
2019-06-20T02:22:47.310Z,312.98
2019-06-20T02:23:47.324Z,311.23
2019-06-20T02:24:47.307Z,310.61
2019-06-20T02:25:47.289Z,315.37
2019-06-20T02:26:47.272Z,309.58
2019-06-20T02:27:47.269Z,311.96
2019-06-20T02:28:47.219Z,312.07
2019-06-20T02:29:47.222Z,312.45
2019-06-20T02:30:47.255Z,313.58
2019-06-20T02:31:47.213Z,310.22
2019-06-20T02:32:47.283Z,311.91
2019-06-20T02:33:47.175Z,310.28
2019-06-20T02:34:47.218Z,316.00
2019-06-20T02:35:47.158Z,309.98
2019-06-20T02:36:47.161Z,310.95
2019-06-20T02:37:47.151Z,310.96
2019-06-20T02:38:47.139Z,310.41
2019-06-20T02:39:47.106Z,314.17
2019-06-20T02:40:47.119Z,310.70
2019-06-20T02:41:47.156Z,310.24
2019-06-20T02:42:47.074Z,312.67
2019-06-20T02:43:47.094Z,312.20
2019-06-20T02:44:47.073Z,311.68
2019-06-20T02:45:47.045Z,310.07
2019-06-20T02:46:47.024Z,311.21
2019-06-20T02:47:47.125Z,312.27
2019-06-20T02:48:47.011Z,310.63
2019-06-20T02:49:47.017Z,310.79
2019-06-20T02:50:47.018Z,310.00
2019-06-20T02:51:47.004Z,312.46
2019-06-20T02:52:46.996Z,312.62
2019-06-20T02:53:46.955Z,312.11
2019-06-20T02:54:46.979Z,313.74
2019-06-20T02:55:46.946Z,311.32
2019-06-20T02:56:47.002Z,311.50
2019-06-20T02:57:46.931Z,317.37
2019-06-20T02:58:46.928Z,313.02
2019-06-20T02:59:46.895Z,312.50
2019-06-20T03:00:46.906Z,311.83
2019-06-20T03:01:46.886Z,310.93
2019-06-20T03:02:46.857Z,312.44
2019-06-20T03:03:46.871Z,313.65
2019-06-20T03:04:46.832Z,312.83
2019-06-20T03:05:46.887Z,312.78
2019-06-20T03:06:46.822Z,313.29
2019-06-20T03:07:46.795Z,312.06
2019-06-20T03:08:46.806Z,311.94
2019-06-20T03:09:46.833Z,311.73
2019-06-20T03:10:46.791Z,311.34
2019-06-20T03:11:46.760Z,312.80
2019-06-20T03:12:46.790Z,312.49
2019-06-20T03:13:46.755Z,313.07
2019-06-20T03:14:46.729Z,312.67
2019-06-20T03:15:49.894Z,312.06
2019-06-20T03:16:46.740Z,313.40
2019-06-20T03:17:46.715Z,310.68
2019-06-20T03:18:46.712Z,314.54
2019-06-20T03:19:46.707Z,312.30
2019-06-20T03:20:46.670Z,312.50
2019-06-20T03:21:46.681Z,311.79
2019-06-20T03:22:46.652Z,311.88
2019-06-20T03:23:46.631Z,312.86
2019-06-20T03:24:46.658Z,310.97
2019-06-20T03:25:46.605Z,312.39
2019-06-20T03:26:46.639Z,311.48
2019-06-20T03:27:46.599Z,312.57
2019-06-20T03:28:46.590Z,312.41
2019-06-20T03:29:46.596Z,311.32
2019-06-20T03:30:46.575Z,313.39
2019-06-20T03:31:46.577Z,311.94
2019-06-20T03:32:46.558Z,312.18
2019-06-20T03:33:46.521Z,313.17
2019-06-20T03:34:46.517Z,313.63
2019-06-20T03:35:46.499Z,313.50
2019-06-20T03:36:46.508Z,311.53
2019-06-20T03:37:50.022Z,311.40
2019-06-20T03:38:46.487Z,312.22
2019-06-20T03:39:46.447Z,311.20
2019-06-20T03:40:46.464Z,310.95
2019-06-20T03:41:46.446Z,310.71
2019-06-20T03:42:46.443Z,310.94
2019-06-20T03:43:46.467Z,311.26
2019-06-20T03:45:01.218Z,311.53
2019-06-20T03:45:47.484Z,311.25
2019-06-20T03:46:46.402Z,316.50
2019-06-20T03:47:46.396Z,312.33
2019-06-20T03:48:46.369Z,311.25
2019-06-20T03:49:46.371Z,311.04
2019-06-20T03:50:46.347Z,310.81
2019-06-20T03:51:46.331Z,310.29
2019-06-20T03:52:46.386Z,309.57
2019-06-20T03:53:46.343Z,310.10
2019-06-20T03:54:47.053Z,309.73
2019-06-20T03:55:46.330Z,311.08
2019-06-20T03:56:46.300Z,310.95
2019-06-20T03:57:46.283Z,309.69
2019-06-20T03:58:46.297Z,310.71
2019-06-20T03:59:46.263Z,309.88
2019-06-20T04:00:46.252Z,310.35
2019-06-20T04:01:49.126Z,311.05
2019-06-20T04:02:46.227Z,312.42
2019-06-20T04:03:46.249Z,311.74
2019-06-20T04:04:46.193Z,310.85
2019-06-20T04:05:46.213Z,310.08
2019-06-20T04:06:46.215Z,311.47
2019-06-20T04:07:46.222Z,309.64
2019-06-20T04:08:46.185Z,309.91
2019-06-20T04:09:55.570Z,310.18
2019-06-20T04:10:46.107Z,310.03
2019-06-20T04:11:46.128Z,310.88
2019-06-20T04:12:46.108Z,310.05
2019-06-20T04:13:46.115Z,311.40
2019-06-20T04:14:48.994Z,310.57
2019-06-20T04:15:46.074Z,310.49
2019-06-20T04:16:46.068Z,310.63
2019-06-20T04:17:46.036Z,311.24
2019-06-20T04:18:46.102Z,310.78
2019-06-20T04:19:46.030Z,310.16
2019-06-20T04:20:46.045Z,310.46
2019-06-20T04:21:46.033Z,309.85
2019-06-20T04:22:46.023Z,310.64
2019-06-20T04:23:46.034Z,309.81
2019-06-20T04:24:45.972Z,311.39
2019-06-20T04:25:45.966Z,309.50
2019-06-20T04:26:45.955Z,310.32
2019-06-20T04:27:45.939Z,309.58
2019-06-20T04:28:45.941Z,309.07
2019-06-20T04:29:45.960Z,310.02
2019-06-20T04:30:45.968Z,309.41
2019-06-20T04:31:45.932Z,308.87
2019-06-20T04:32:45.938Z,309.46
2019-06-20T04:33:45.897Z,308.95
2019-06-20T04:34:45.888Z,309.01
2019-06-20T04:35:45.861Z,309.12
2019-06-20T04:36:48.074Z,309.36
2019-06-20T04:37:45.930Z,308.69
2019-06-20T04:38:45.815Z,309.31
2019-06-20T04:39:45.813Z,308.73
2019-06-20T04:40:45.791Z,308.85
2019-06-20T04:41:45.813Z,308.10
2019-06-20T04:42:45.792Z,309.05
2019-06-20T04:43:45.802Z,308.89
2019-06-20T04:44:45.762Z,309.41
2019-06-20T04:45:45.784Z,309.77
2019-06-20T04:46:45.768Z,309.99
2019-06-20T04:47:45.749Z,310.35
2019-06-20T04:48:45.737Z,311.54
2019-06-20T04:49:45.705Z,309.12
2019-06-20T04:50:45.694Z,310.09
2019-06-20T04:51:45.716Z,308.34
2019-06-20T04:52:45.683Z,310.49
2019-06-20T04:53:45.679Z,310.84
2019-06-20T04:54:45.723Z,310.73
2019-06-20T04:55:45.665Z,310.27
2019-06-20T04:56:45.665Z,310.96
2019-06-20T04:57:45.726Z,311.77
2019-06-20T04:58:45.662Z,311.28
2019-06-20T04:59:45.653Z,312.20
2019-06-20T05:00:45.609Z,311.81
2019-06-20T05:01:45.772Z,311.80
2019-06-20T05:02:45.597Z,311.55
2019-06-20T05:03:45.844Z,310.17
2019-06-20T05:04:46.494Z,311.43
2019-06-20T05:05:45.554Z,310.73
2019-06-20T05:06:45.532Z,310.92
2019-06-20T05:07:45.554Z,309.43
2019-06-20T05:08:45.535Z,309.54
2019-06-20T05:09:45.564Z,308.62
2019-06-20T05:10:45.514Z,308.62
2019-06-20T05:11:45.494Z,308.23
2019-06-20T05:12:45.475Z,309.07
2019-06-20T05:13:45.527Z,308.81
2019-06-20T05:14:45.515Z,309.08
2019-06-20T05:15:52.566Z,306.78
2019-06-20T05:16:46.451Z,310.26
2019-06-20T05:17:45.466Z,307.55
2019-06-20T05:18:45.440Z,308.39
2019-06-20T05:19:45.516Z,308.59
2019-06-20T05:20:45.394Z,310.50
2019-06-20T05:21:45.417Z,309.00
2019-06-20T05:22:45.759Z,309.34
2019-06-20T05:23:45.388Z,308.35
2019-06-20T05:24:45.437Z,309.26
2019-06-20T05:25:45.390Z,309.59
2019-06-20T05:26:45.327Z,309.38
2019-06-20T05:27:45.999Z,307.90
2019-06-20T05:28:45.383Z,308.10
2019-06-20T05:29:45.355Z,308.87
2019-06-20T05:30:45.353Z,306.95
2019-06-20T05:31:45.292Z,308.47
2019-06-20T05:32:45.444Z,307.55
2019-06-20T05:33:45.268Z,308.17
2019-06-20T05:34:45.248Z,306.89
2019-06-20T05:35:45.254Z,306.97
2019-06-20T05:36:45.245Z,307.50
2019-06-20T05:37:45.232Z,308.10
2019-06-20T05:38:45.209Z,308.89
2019-06-20T05:39:45.211Z,309.09
2019-06-20T05:40:45.181Z,308.35
2019-06-20T05:41:45.206Z,308.86
2019-06-20T05:42:45.191Z,309.31
2019-06-20T05:43:45.143Z,309.16
2019-06-20T05:44:45.161Z,309.52
2019-06-20T05:45:48.529Z,309.63
2019-06-20T05:46:45.172Z,309.77
2019-06-20T05:47:55.623Z,309.55
2019-06-20T05:48:45.120Z,309.73
2019-06-20T05:49:45.121Z,311.68
2019-06-20T05:50:45.102Z,310.93
2019-06-20T05:51:45.074Z,310.05
2019-06-20T05:52:45.160Z,309.89
2019-06-20T05:53:54.165Z,310.59
2019-06-20T05:54:45.018Z,308.96
2019-06-20T05:55:45.038Z,309.02
2019-06-20T05:56:44.995Z,309.81
2019-06-20T05:57:45.032Z,310.09
2019-06-20T05:58:45.974Z,311.19
2019-06-20T05:59:45.035Z,310.20
2019-06-20T06:00:45.075Z,309.79
2019-06-20T06:01:44.958Z,310.74
2019-06-20T06:02:54.221Z,311.06
2019-06-20T06:03:44.925Z,310.46
2019-06-20T06:04:44.943Z,309.64
2019-06-20T06:05:44.924Z,310.27
2019-06-20T06:06:44.999Z,311.31
2019-06-20T06:07:44.891Z,310.20
2019-06-20T06:08:44.982Z,311.37
2019-06-20T06:09:45.718Z,310.83
2019-06-20T06:10:44.863Z,310.35
2019-06-20T06:11:44.858Z,311.02
2019-06-20T06:12:46.325Z,310.80
2019-06-20T06:13:44.821Z,311.11
2019-06-20T06:14:44.823Z,311.97
2019-06-20T06:15:44.890Z,311.49
2019-06-20T06:16:44.785Z,313.90
2019-06-20T06:17:44.800Z,314.76
2019-06-20T06:18:44.917Z,313.98
2019-06-20T06:19:44.782Z,314.07
2019-06-20T06:20:45.117Z,314.05
2019-06-20T06:21:44.803Z,314.44
2019-06-20T06:22:44.943Z,315.37
2019-06-20T06:23:44.746Z,316.94
2019-06-20T06:24:44.715Z,313.57
2019-06-20T06:25:44.849Z,312.41
2019-06-20T06:26:44.813Z,313.27
2019-06-20T06:27:44.713Z,316.34
2019-06-20T06:28:44.691Z,316.59
2019-06-20T06:29:44.699Z,314.96
2019-06-20T06:30:44.658Z,313.84
2019-06-20T06:31:44.695Z,311.14
2019-06-20T06:32:44.667Z,314.94
2019-06-20T06:33:44.647Z,311.49
2019-06-20T06:34:44.605Z,309.89
2019-06-20T06:35:44.588Z,310.90
2019-06-20T06:36:44.657Z,311.43
2019-06-20T06:37:44.587Z,309.15
2019-06-20T06:38:44.639Z,309.03
2019-06-20T06:39:44.726Z,312.11
2019-06-20T06:40:44.558Z,307.02
2019-06-20T06:41:44.768Z,310.50
2019-06-20T06:42:44.621Z,310.19
2019-06-20T06:43:44.529Z,309.16
2019-06-20T06:44:44.504Z,309.13
2019-06-20T06:45:44.506Z,309.30
2019-06-20T06:46:53.276Z,309.30
2019-06-20T06:47:45.533Z,310.54
2019-06-20T06:48:44.523Z,310.60
2019-06-20T06:49:45.146Z,309.34
2019-06-20T06:50:44.502Z,311.25
2019-06-20T06:51:44.435Z,309.76
2019-06-20T06:52:44.502Z,312.36
2019-06-20T06:53:44.387Z,309.03
2019-06-20T06:54:44.428Z,310.46
2019-06-20T06:55:44.405Z,310.49
2019-06-20T06:56:44.378Z,309.01
2019-06-20T06:57:44.459Z,309.52
2019-06-20T06:58:44.363Z,311.65
2019-06-20T06:59:44.405Z,311.64
2019-06-20T07:00:44.333Z,313.58
2019-06-20T07:01:44.345Z,310.49
2019-06-20T07:02:44.322Z,311.80
2019-06-20T07:03:44.347Z,310.33
2019-06-20T07:04:44.297Z,310.35
2019-06-20T07:05:44.294Z,311.37
2019-06-20T07:06:45.129Z,316.56
2019-06-20T07:07:44.297Z,310.38
2019-06-20T07:08:44.288Z,314.62
2019-06-20T07:09:44.254Z,313.39
2019-06-20T07:10:44.231Z,312.77
2019-06-20T07:11:44.240Z,317.02
2019-06-20T07:12:44.232Z,312.73
2019-06-20T07:13:44.237Z,314.83
2019-06-20T07:14:44.192Z,312.58
2019-06-20T07:15:44.187Z,315.44
2019-06-20T07:16:59.460Z,312.03
2019-06-20T07:17:45.503Z,312.85
2019-06-20T07:18:44.220Z,311.70
2019-06-20T07:19:44.122Z,317.47
2019-06-20T07:20:44.149Z,313.29
2019-06-20T07:21:44.137Z,312.90
2019-06-20T07:22:44.331Z,309.28
2019-06-20T07:23:44.135Z,313.07
2019-06-20T07:24:44.285Z,313.35
2019-06-20T07:25:44.097Z,312.03
2019-06-20T07:26:44.123Z,312.42
2019-06-20T07:27:44.069Z,313.90
2019-06-20T07:28:44.047Z,314.16
2019-06-20T07:29:44.073Z,312.50
2019-06-20T07:30:44.005Z,312.23
2019-06-20T07:31:44.038Z,312.23
2019-06-20T07:32:43.988Z,314.24
2019-06-20T07:33:44.174Z,314.09
2019-06-20T07:34:44.042Z,312.62
2019-06-20T07:35:44.211Z,313.23
2019-06-20T07:36:43.959Z,312.88
2019-06-20T07:37:43.943Z,312.59
2019-06-20T07:38:44.053Z,314.20
2019-06-20T07:39:43.952Z,312.01
2019-06-20T07:40:43.916Z,312.54
2019-06-20T07:41:45.203Z,312.67
2019-06-20T07:42:43.948Z,312.88
2019-06-20T07:43:43.887Z,310.58
2019-06-20T07:44:43.984Z,311.72
2019-06-20T07:46:01.194Z,314.47
2019-06-20T07:46:44.930Z,311.44
2019-06-20T07:47:43.900Z,312.43
2019-06-20T07:48:44.210Z,313.14
2019-06-20T07:49:44.646Z,311.02
2019-06-20T07:50:43.977Z,313.62
2019-06-20T07:51:43.810Z,311.14
2019-06-20T07:52:57.763Z,312.84
2019-06-20T07:53:44.774Z,313.11
2019-06-20T07:54:43.847Z,313.65
2019-06-20T07:55:43.805Z,311.73
2019-06-20T07:56:43.797Z,313.89
2019-06-20T07:57:43.787Z,313.09
2019-06-20T07:58:43.741Z,311.55
2019-06-20T07:59:43.712Z,311.89
2019-06-20T08:00:43.706Z,312.44
2019-06-20T08:01:43.756Z,311.61
2019-06-20T08:02:43.705Z,311.67
2019-06-20T08:03:45.261Z,311.43
2019-06-20T08:04:43.669Z,312.12
2019-06-20T08:05:43.651Z,311.07
2019-06-20T08:06:43.733Z,311.26
2019-06-20T08:07:43.709Z,309.44
2019-06-20T08:08:43.692Z,311.70
2019-06-20T08:09:45.094Z,310.04
2019-06-20T08:10:43.594Z,310.72
2019-06-20T08:11:43.595Z,311.15
2019-06-20T08:12:43.604Z,312.04
2019-06-20T08:13:43.589Z,309.09
2019-06-20T08:14:43.553Z,310.33
2019-06-20T08:15:43.584Z,308.94
2019-06-20T08:16:43.566Z,309.60
2019-06-20T08:17:43.567Z,310.33
2019-06-20T08:18:43.537Z,308.28
2019-06-20T08:19:43.534Z,308.62
2019-06-20T08:20:43.563Z,310.74
2019-06-20T08:21:44.179Z,311.03
2019-06-20T08:22:43.526Z,310.95
2019-06-20T08:23:43.486Z,310.12
2019-06-20T08:24:43.497Z,310.38
2019-06-20T08:25:43.448Z,307.66
2019-06-20T08:26:43.485Z,310.90
2019-06-20T08:27:43.422Z,310.24
2019-06-20T08:28:43.463Z,308.96
2019-06-20T08:29:43.390Z,309.43
2019-06-20T08:30:43.396Z,309.16
2019-06-20T08:31:43.386Z,309.99
2019-06-20T08:32:43.367Z,311.40
2019-06-20T08:33:43.369Z,311.78
2019-06-20T08:34:43.547Z,308.50
2019-06-20T08:35:43.365Z,310.72
2019-06-20T08:36:43.314Z,310.21
2019-06-20T08:37:43.494Z,307.77
2019-06-20T08:38:43.374Z,308.71
2019-06-20T08:39:43.351Z,307.41
2019-06-20T08:40:43.281Z,307.34
2019-06-20T08:41:43.268Z,307.45
2019-06-20T08:42:43.520Z,308.60
2019-06-20T08:43:43.333Z,305.60
2019-06-20T08:44:43.385Z,307.80
2019-06-20T08:45:43.273Z,307.96
2019-06-20T08:46:43.226Z,307.57
2019-06-20T08:47:43.354Z,306.95
2019-06-20T08:48:43.293Z,307.01
2019-06-20T08:49:43.193Z,307.41
2019-06-20T08:50:43.220Z,307.74
2019-06-20T08:51:43.220Z,308.78
2019-06-20T08:52:43.195Z,308.03
2019-06-20T08:53:43.171Z,306.51
2019-06-20T08:54:43.154Z,306.26
2019-06-20T08:55:43.204Z,307.14
2019-06-20T08:56:43.152Z,305.63
2019-06-20T08:57:43.352Z,307.05
2019-06-20T08:58:43.122Z,307.26
2019-06-20T08:59:43.110Z,307.40
2019-06-20T09:00:43.096Z,307.03
2019-06-20T09:01:43.815Z,307.65
2019-06-20T09:02:43.100Z,307.68
2019-06-20T09:03:43.030Z,306.32
2019-06-20T09:04:43.049Z,306.88
2019-06-20T09:05:43.032Z,307.50
2019-06-20T09:06:43.043Z,307.24
2019-06-20T09:07:43.782Z,306.36
2019-06-20T09:08:43.011Z,305.65
2019-06-20T09:09:43.003Z,306.69
2019-06-20T09:10:43.008Z,307.62
2019-06-20T09:11:42.946Z,307.00
2019-06-20T09:12:42.976Z,306.38
2019-06-20T09:13:43.005Z,306.33
2019-06-20T09:14:42.937Z,305.79
2019-06-20T09:15:42.911Z,306.69
2019-06-20T09:16:42.938Z,305.76
2019-06-20T09:17:42.917Z,304.90
2019-06-20T09:18:43.263Z,304.45
2019-06-20T09:19:42.880Z,305.66
2019-06-20T09:20:42.953Z,304.52
2019-06-20T09:21:43.813Z,306.40
2019-06-20T09:22:42.917Z,305.91
2019-06-20T09:23:43.061Z,306.71
2019-06-20T09:24:42.870Z,306.54
2019-06-20T09:25:42.822Z,307.31
2019-06-20T09:26:42.833Z,305.49
2019-06-20T09:27:42.871Z,306.61
2019-06-20T09:28:42.940Z,307.26
2019-06-20T09:29:42.917Z,306.59
2019-06-20T09:30:42.820Z,307.12
2019-06-20T09:31:42.873Z,307.03
2019-06-20T09:32:42.841Z,307.01
2019-06-20T09:33:42.750Z,306.02
2019-06-20T09:34:42.813Z,306.62
2019-06-20T09:35:42.699Z,306.06
2019-06-20T09:36:42.908Z,306.18
2019-06-20T09:37:43.000Z,306.61
2019-06-20T09:38:43.453Z,306.52
2019-06-20T09:39:42.665Z,307.21
2019-06-20T09:40:42.668Z,308.50
2019-06-20T09:41:42.770Z,306.50
2019-06-20T09:42:43.147Z,306.78
2019-06-20T09:43:42.755Z,308.59
2019-06-20T09:44:42.679Z,307.09
2019-06-20T09:45:42.604Z,307.66
2019-06-20T09:46:42.861Z,307.57
2019-06-20T09:47:42.783Z,306.98
2019-06-20T09:48:42.899Z,308.35
2019-06-20T09:49:42.682Z,309.72
2019-06-20T09:50:42.951Z,308.09
2019-06-20T09:51:42.876Z,306.36
2019-06-20T09:52:43.207Z,306.65
2019-06-20T09:53:42.970Z,307.35
2019-06-20T09:54:42.587Z,308.35
2019-06-20T09:55:42.515Z,306.67
2019-06-20T09:56:42.822Z,308.23
2019-06-20T09:57:54.043Z,307.41
2019-06-20T09:58:42.489Z,306.86
2019-06-20T10:00:02.713Z,307.26
2019-06-20T10:00:43.500Z,307.16
2019-06-20T10:03:34.090Z,286.89
2019-06-20T10:07:13.944Z,286.43
2019-06-20T10:08:22.077Z,306.50
2019-06-20T10:12:06.180Z,287.29
2019-06-20T10:18:01.012Z,285.46
2019-06-20T10:19:00.852Z,307.46
2019-06-20T10:20:00.901Z,308.46
2019-06-20T10:21:00.859Z,307.06
2019-06-20T10:22:01.208Z,307.34
2019-06-20T10:23:00.739Z,307.22
2019-06-20T10:24:00.682Z,308.75
2019-06-20T10:25:00.688Z,308.08
2019-06-20T10:26:00.723Z,306.77
2019-06-20T10:27:00.717Z,307.77
2019-06-20T10:28:01.238Z,305.53
2019-06-20T10:29:00.689Z,304.98
2019-06-20T10:30:13.540Z,306.38
2019-06-20T10:31:01.800Z,307.41
2019-06-20T10:32:00.647Z,306.66
2019-06-20T10:33:00.638Z,307.07
2019-06-20T10:34:00.618Z,304.42
2019-06-20T10:35:00.955Z,306.53
2019-06-20T10:36:00.611Z,305.50
2019-06-20T10:37:00.617Z,307.08
2019-06-20T10:38:00.754Z,305.91
2019-06-20T10:39:00.598Z,306.50
2019-06-20T10:40:00.593Z,307.56
2019-06-20T10:41:00.566Z,303.22
2019-06-20T10:42:00.683Z,304.40
2019-06-20T10:43:00.548Z,306.90
2019-06-20T10:44:00.501Z,305.80
2019-06-20T10:45:00.530Z,306.54
2019-06-20T10:46:00.488Z,303.82
2019-06-20T10:47:00.478Z,304.34
2019-06-20T10:48:00.442Z,304.82
2019-06-20T10:49:00.588Z,305.45
2019-06-20T10:50:00.471Z,304.02
2019-06-20T10:51:00.412Z,304.72
2019-06-20T10:52:00.592Z,305.45
2019-06-20T10:53:00.442Z,306.59
2019-06-20T10:54:00.396Z,304.09
2019-06-20T10:55:00.560Z,305.05
2019-06-20T10:56:00.370Z,306.04
2019-06-20T10:57:00.558Z,304.24
2019-06-20T10:58:00.404Z,305.47
2019-06-20T10:59:00.326Z,305.79
2019-06-20T11:00:00.307Z,305.38
2019-06-20T11:01:00.370Z,306.48
2019-06-20T11:02:00.657Z,305.90
2019-06-20T11:03:00.409Z,306.40
2019-06-20T11:04:00.336Z,306.76
2019-06-20T11:05:00.415Z,307.67
2019-06-20T11:06:00.285Z,306.85
2019-06-20T11:07:00.242Z,305.29
2019-06-20T11:08:00.469Z,305.44
2019-06-20T11:09:00.252Z,305.18
2019-06-20T11:10:00.366Z,305.16
2019-06-20T11:11:00.249Z,304.65
2019-06-20T11:12:01.359Z,304.53
2019-06-20T11:13:00.211Z,304.35
2019-06-20T11:14:00.177Z,303.33
2019-06-20T11:15:00.535Z,304.34
2019-06-20T11:16:00.301Z,303.21
2019-06-20T11:17:00.157Z,304.52
2019-06-20T11:18:00.159Z,303.87
2019-06-20T11:19:00.160Z,301.30
2019-06-20T11:20:00.176Z,303.16
2019-06-20T11:21:00.100Z,303.75
2019-06-20T11:22:00.122Z,303.88
2019-06-20T11:23:00.328Z,303.31
2019-06-20T11:24:00.142Z,303.69
2019-06-20T11:25:00.156Z,303.03
2019-06-20T11:26:00.229Z,303.62
2019-06-20T11:27:00.035Z,304.30
2019-06-20T11:27:59.999Z,303.40
2019-06-20T11:29:00.019Z,304.32
2019-06-20T11:30:00.050Z,304.41
2019-06-20T11:31:00.582Z,303.76
2019-06-20T11:31:59.962Z,305.21
2019-06-20T11:32:59.954Z,304.40
2019-06-20T11:33:59.954Z,304.72
2019-06-20T11:34:59.962Z,304.06
2019-06-20T11:35:59.967Z,304.52
2019-06-20T11:36:59.989Z,303.42
2019-06-20T11:37:59.942Z,304.43
2019-06-20T11:38:59.933Z,304.28
2019-06-20T11:39:59.904Z,303.14
2019-06-20T11:40:59.951Z,299.44
2019-06-20T11:41:59.919Z,304.15
2019-06-20T11:42:59.864Z,304.20
2019-06-20T11:43:59.865Z,304.70
2019-06-20T11:44:59.855Z,302.52
2019-06-20T11:45:59.841Z,304.52
2019-06-20T11:46:59.844Z,305.69
2019-06-20T11:47:59.844Z,303.45
2019-06-20T11:48:59.803Z,305.47
2019-06-20T11:49:59.852Z,306.24
2019-06-20T11:50:59.790Z,303.36
2019-06-20T11:51:59.861Z,304.37
2019-06-20T11:52:59.765Z,303.71
2019-06-20T11:53:59.786Z,304.15
2019-06-20T11:54:59.720Z,303.60
2019-06-20T11:55:59.725Z,303.36
2019-06-20T11:56:59.761Z,301.35
2019-06-20T11:57:59.730Z,302.78
2019-06-20T11:58:59.685Z,302.88
2019-06-20T11:59:59.679Z,302.09
2019-06-20T12:01:03.943Z,302.65
2019-06-20T12:02:00.024Z,303.20
2019-06-20T12:02:59.709Z,304.02
2019-06-20T12:03:59.653Z,303.67
2019-06-20T12:04:59.652Z,304.42
2019-06-20T12:05:59.658Z,304.34
2019-06-20T12:07:00.528Z,302.06
2019-06-20T12:07:59.653Z,301.76
2019-06-20T12:08:59.595Z,301.39
2019-06-20T12:09:59.733Z,303.01
2019-06-20T12:10:59.575Z,302.15
2019-06-20T12:11:59.568Z,302.51
2019-06-20T12:12:59.581Z,303.04
2019-06-20T12:13:59.562Z,302.47
2019-06-20T12:14:59.511Z,303.41
2019-06-20T12:15:59.585Z,304.05
2019-06-20T12:16:59.507Z,303.10
2019-06-20T12:17:59.534Z,303.63
2019-06-20T12:19:00.028Z,302.49
2019-06-20T12:19:59.494Z,301.01
2019-06-20T12:20:59.489Z,302.70
2019-06-20T12:21:59.612Z,304.15
2019-06-20T12:22:59.472Z,305.51
2019-06-20T12:23:59.792Z,301.67
2019-06-20T12:24:59.465Z,305.00
2019-06-20T12:25:59.802Z,304.42
2019-06-20T12:26:59.516Z,304.88
2019-06-20T12:27:59.437Z,308.01
2019-06-20T12:28:59.423Z,302.21
2019-06-20T12:29:59.418Z,306.68
2019-06-20T12:30:59.357Z,304.57
2019-06-20T12:31:59.448Z,305.22
2019-06-20T12:32:59.575Z,304.00
2019-06-20T12:33:59.832Z,306.37
2019-06-20T12:34:59.605Z,303.91
2019-06-20T12:35:59.351Z,303.61
2019-06-20T12:36:59.327Z,300.09
2019-06-20T12:37:59.309Z,301.40
2019-06-20T12:38:59.524Z,301.71
2019-06-20T12:40:00.243Z,297.56
2019-06-20T12:40:59.296Z,298.48